LEBLLESO

Guest
Details From LEBL - Barcelona El Prat
To LESO - San Sebastian
Flight Number -
Tags Generated
Created
Modified
Stats Distance 212 nm / 393 km
Max Altitude 0 ft / 0 m
Waypoints 2
Social Downloads 1
Likes 0
Share VATSIM

Download

Looking for another format? Having issues loading an existing format? Contact us
Advertisement - Login to hide

Notes

Generated

Route

LEBL LESO

ID Type Via Altitude Latitude Longitude Leg Dist Tot Dist Heading (true) Name
O LEBL APT - 0 ft / 0 m 41.28777˚ 2.08484˚ - 0 nm - -
O LESO APT - 0 ft / 0 m 43.35035˚ -1.79740˚ 212 nm 212 nm 307° / 304° -

Altitude Profile

Advertisement - Login to hide

Weather


0- 5 10 15 20 25 30 35+ Temperature / ° C

Clouds and Precipitation
Forecast for 2017-12-17 00:00 UTC. Updated an hour ago

Ground ~20,000 ft ~40,000 ft Winds

LEBL

Details ICAO LEBL (BCN)
Name Barcelona - El Prat
Region Spain
Timezone Europe/Madrid (UTC+1.0)
Stats Elevation 14 ft / 4 m (AMSL)
Location 41.295108° 2.088030°
Runways 3
Magnetic Variation 0.820° E

METAR

LEBL 170030Z 33009KT CAVOK 04/M02 Q1023 NOSIG

Decode

TAF

TAF LEBL 162300Z 1700/1724 33009KT 9999 FEW030 TX14/1712Z TN05/1706Z TEMPO 1703/1716 33012G22KT

Decode

Departure Runways

ID Width Length Bearing (true) Bearing (mag) Surface Threshold Offset Overrun Length
02 148 ft / 45 m 8,343 ft / 2,543 m 18.93° 18.11° Asphalt 0 ft / 0 m 348 ft / 106 m
07L 197 ft / 60 m 10,983 ft / 3,348 m 65.49° 64.67° Asphalt 1,411 ft / 430 m 1,161 ft / 354 m
07R 197 ft / 60 m 8,718 ft / 2,657 m 65.49° 64.67° Asphalt 0 ft / 0 m 207 ft / 63 m
20 148 ft / 45 m 8,343 ft / 2,543 m 198.93° 198.11° Asphalt 0 ft / 0 m 200 ft / 61 m
25L 197 ft / 60 m 8,718 ft / 2,657 m 245.51° 244.69° Asphalt 0 ft / 0 m 203 ft / 62 m
25R 197 ft / 60 m 10,983 ft / 3,348 m 245.51° 244.69° Asphalt 0 ft / 0 m 522 ft / 159 m

LESO

Details ICAO LESO (EAS)
Name San_Sebastian
Region Spain
Timezone Europe/Madrid (UTC+1.0)
Stats Elevation 14 ft / 4 m (AMSL)
Location 43.356520° -1.790611°
Runways 1
Magnetic Variation 0.297° W

METAR

LESO 170030Z AUTO VRB01KT 7000 NCD 04/03 Q1030

Decode

TAF

TAF LESO 162300Z 1700/1724 34006KT 9999 BKN045 TX12/1714Z TN05/1706Z TEMPO 1700/1708 RA

Decode

Destination Runways

ID Width Length Bearing (true) Bearing (mag) Surface Threshold Offset Overrun Length
04 148 ft / 45 m 5,762 ft / 1,756 m 38.68° 38.98° Asphalt 0 ft / 0 m 0 ft / 0 m
22 148 ft / 45 m 5,762 ft / 1,756 m 218.69° 218.99° Asphalt 0 ft / 0 m 0 ft / 0 m

Popular Alternatives